sensor_id;sensor_type;location;lat;lon;timestamp;P1;durP1;ratioP1;P2;durP2;ratioP2
45650;SDS011;31365;48.858;8.530;2024-03-29T00:01:39;1.80;;;1.70;;
45650;SDS011;31365;48.858;8.530;2024-03-29T00:04:06;1.63;;;1.53;;
45650;SDS011;31365;48.858;8.530;2024-03-29T00:06:33;2.47;;;1.50;;
45650;SDS011;31365;48.858;8.530;2024-03-29T00:09:00;2.60;;;1.50;;
45650;SDS011;31365;48.858;8.530;2024-03-29T00:11:27;3.83;;;1.70;;
45650;SDS011;31365;48.858;8.530;2024-03-29T00:13:53;2.30;;;1.87;;
45650;SDS011;31365;48.858;8.530;2024-03-29T00:16:20;1.87;;;1.77;;
45650;SDS011;31365;48.858;8.530;2024-03-29T00:18:47;1.97;;;1.50;;
45650;SDS011;31365;48.858;8.530;2024-03-29T00:21:13;1.87;;;1.40;;
45650;SDS011;31365;48.858;8.530;2024-03-29T00:23:41;1.83;;;1.73;;
45650;SDS011;31365;48.858;8.530;2024-03-29T00:26:08;1.90;;;1.70;;
45650;SDS011;31365;48.858;8.530;2024-03-29T00:28:35;2.13;;;1.60;;
45650;SDS011;31365;48.858;8.530;2024-03-29T00:31:01;1.67;;;1.57;;
45650;SDS011;31365;48.858;8.530;2024-03-29T00:33:28;2.13;;;1.50;;
45650;SDS011;31365;48.858;8.530;2024-03-29T00:35:54;2.43;;;1.90;;
45650;SDS011;31365;48.858;8.530;2024-03-29T00:38:21;1.57;;;1.47;;
45650;SDS011;31365;48.858;8.530;2024-03-29T00:40:49;1.90;;;1.43;;
45650;SDS011;31365;48.858;8.530;2024-03-29T00:43:15;1.90;;;1.70;;
45650;SDS011;31365;48.858;8.530;2024-03-29T00:45:42;1.77;;;1.67;;
45650;SDS011;31365;48.858;8.530;2024-03-29T00:48:10;3.03;;;1.40;;
45650;SDS011;31365;48.858;8.530;2024-03-29T00:50:36;2.40;;;1.60;;
45650;SDS011;31365;48.858;8.530;2024-03-29T00:53:03;2.20;;;1.63;;
45650;SDS011;31365;48.858;8.530;2024-03-29T00:55:30;2.67;;;1.60;;
45650;SDS011;31365;48.858;8.530;2024-03-29T00:57:58;2.37;;;1.60;;
45650;SDS011;31365;48.858;8.530;2024-03-29T01:00:24;3.07;;;1.60;;
45650;SDS011;31365;48.858;8.530;2024-03-29T01:02:52;4.07;;;1.80;;
45650;SDS011;31365;48.858;8.530;2024-03-29T01:05:18;1.63;;;1.53;;
45650;SDS011;31365;48.858;8.530;2024-03-29T01:07:45;1.80;;;1.70;;
45650;SDS011;31365;48.858;8.530;2024-03-29T01:10:11;1.90;;;1.67;;
45650;SDS011;31365;48.858;8.530;2024-03-29T01:12:38;1.93;;;1.73;;
45650;SDS011;31365;48.858;8.530;2024-03-29T01:15:06;4.10;;;1.57;;
45650;SDS011;31365;48.858;8.530;2024-03-29T01:17:34;3.70;;;1.40;;
45650;SDS011;31365;48.858;8.530;2024-03-29T01:20:00;1.63;;;1.40;;
45650;SDS011;31365;48.858;8.530;2024-03-29T01:22:27;1.83;;;1.40;;
45650;SDS011;31365;48.858;8.530;2024-03-29T01:24:53;1.63;;;1.53;;
45650;SDS011;31365;48.858;8.530;2024-03-29T01:27:20;1.57;;;1.40;;
45650;SDS011;31365;48.858;8.530;2024-03-29T01:29:47;1.60;;;1.50;;
45650;SDS011;31365;48.858;8.530;2024-03-29T01:32:14;1.23;;;1.23;;
45650;SDS011;31365;48.858;8.530;2024-03-29T01:34:40;1.50;;;1.40;;
45650;SDS011;31365;48.858;8.530;2024-03-29T01:37:07;1.80;;;1.20;;
45650;SDS011;31365;48.858;8.530;2024-03-29T01:39:34;1.30;;;1.30;;
45650;SDS011;31365;48.858;8.530;2024-03-29T01:42:00;1.40;;;1.33;;
45650;SDS011;31365;48.858;8.530;2024-03-29T01:44:27;1.30;;;1.30;;
45650;SDS011;31365;48.858;8.530;2024-03-29T01:46:54;1.50;;;1.33;;
45650;SDS011;31365;48.858;8.530;2024-03-29T01:49:23;1.73;;;1.50;;
45650;SDS011;31365;48.858;8.530;2024-03-29T01:51:51;1.60;;;1.50;;
45650;SDS011;31365;48.858;8.530;2024-03-29T01:54:20;1.40;;;1.30;;
45650;SDS011;31365;48.858;8.530;2024-03-29T01:56:47;1.30;;;1.30;;
45650;SDS011;31365;48.858;8.530;2024-03-29T01:59:15;1.77;;;1.20;;
45650;SDS011;31365;48.858;8.530;2024-03-29T02:01:45;1.10;;;1.10;;
45650;SDS011;31365;48.858;8.530;2024-03-29T02:04:14;1.20;;;1.17;;
45650;SDS011;31365;48.858;8.530;2024-03-29T02:06:43;1.17;;;1.17;;
45650;SDS011;31365;48.858;8.530;2024-03-29T02:09:11;2.30;;;1.97;;
45650;SDS011;31365;48.858;8.530;2024-03-29T02:11:39;1.10;;;1.10;;
45650;SDS011;31365;48.858;8.530;2024-03-29T02:14:06;1.57;;;1.47;;
45650;SDS011;31365;48.858;8.530;2024-03-29T02:16:33;2.77;;;1.50;;
45650;SDS011;31365;48.858;8.530;2024-03-29T02:19:03;1.27;;;1.17;;
45650;SDS011;31365;48.858;8.530;2024-03-29T02:21:30;1.43;;;1.33;;
45650;SDS011;31365;48.858;8.530;2024-03-29T02:24:06;1.20;;;1.20;;
45650;SDS011;31365;48.858;8.530;2024-03-29T02:26:34;1.40;;;1.10;;
45650;SDS011;31365;48.858;8.530;2024-03-29T02:29:07;1.20;;;1.20;;
45650;SDS011;31365;48.858;8.530;2024-03-29T02:31:35;1.20;;;1.20;;
45650;SDS011;31365;48.858;8.530;2024-03-29T02:34:02;1.40;;;1.30;;
45650;SDS011;31365;48.858;8.530;2024-03-29T02:36:30;1.40;;;1.20;;
45650;SDS011;31365;48.858;8.530;2024-03-29T02:38:58;1.50;;;1.40;;
45650;SDS011;31365;48.858;8.530;2024-03-29T02:41:26;1.20;;;1.20;;
45650;SDS011;31365;48.858;8.530;2024-03-29T02:43:55;1.40;;;1.30;;
45650;SDS011;31365;48.858;8.530;2024-03-29T02:46:23;1.20;;;1.20;;
45650;SDS011;31365;48.858;8.530;2024-03-29T02:48:51;1.23;;;1.23;;
45650;SDS011;31365;48.858;8.530;2024-03-29T02:51:17;1.20;;;1.20;;
45650;SDS011;31365;48.858;8.530;2024-03-29T02:53:45;1.50;;;1.40;;
45650;SDS011;31365;48.858;8.530;2024-03-29T02:56:12;1.60;;;1.50;;
45650;SDS011;31365;48.858;8.530;2024-03-29T02:58:45;1.33;;;1.23;;
45650;SDS011;31365;48.858;8.530;2024-03-29T03:01:12;1.30;;;1.20;;
45650;SDS011;31365;48.858;8.530;2024-03-29T03:03:40;1.30;;;1.20;;
45650;SDS011;31365;48.858;8.530;2024-03-29T03:06:06;1.43;;;1.37;;
45650;SDS011;31365;48.858;8.530;2024-03-29T03:08:33;1.30;;;1.30;;
45650;SDS011;31365;48.858;8.530;2024-03-29T03:11:18;1.10;;;1.10;;
45650;SDS011;31365;48.858;8.530;2024-03-29T03:13:47;1.30;;;1.20;;
45650;SDS011;31365;48.858;8.530;2024-03-29T03:16:14;1.70;;;1.30;;
45650;SDS011;31365;48.858;8.530;2024-03-29T03:18:41;1.47;;;1.37;;
45650;SDS011;31365;48.858;8.530;2024-03-29T03:21:08;1.30;;;1.30;;
45650;SDS011;31365;48.858;8.530;2024-03-29T03:23:35;1.20;;;1.20;;
45650;SDS011;31365;48.858;8.530;2024-03-29T03:26:02;1.23;;;1.20;;
45650;SDS011;31365;48.858;8.530;2024-03-29T03:28:30;1.30;;;1.20;;
45650;SDS011;31365;48.858;8.530;2024-03-29T03:30:58;1.20;;;1.20;;
45650;SDS011;31365;48.858;8.530;2024-03-29T03:33:25;1.53;;;1.23;;
45650;SDS011;31365;48.858;8.530;2024-03-29T03:35:52;1.40;;;1.30;;
45650;SDS011;31365;48.858;8.530;2024-03-29T03:38:19;1.20;;;1.20;;
45650;SDS011;31365;48.858;8.530;2024-03-29T03:40:45;1.70;;;1.30;;
45650;SDS011;31365;48.858;8.530;2024-03-29T03:43:12;1.20;;;1.20;;
45650;SDS011;31365;48.858;8.530;2024-03-29T03:45:39;1.30;;;1.20;;
45650;SDS011;31365;48.858;8.530;2024-03-29T03:48:09;1.50;;;1.40;;
45650;SDS011;31365;48.858;8.530;2024-03-29T03:50:36;1.60;;;1.50;;
45650;SDS011;31365;48.858;8.530;2024-03-29T03:53:04;1.20;;;1.20;;
45650;SDS011;31365;48.858;8.530;2024-03-29T03:55:30;1.30;;;1.30;;
45650;SDS011;31365;48.858;8.530;2024-03-29T03:58:03;1.33;;;1.33;;
45650;SDS011;31365;48.858;8.530;2024-03-29T04:00:30;1.97;;;1.47;;
45650;SDS011;31365;48.858;8.530;2024-03-29T04:02:57;1.30;;;1.30;;
45650;SDS011;31365;48.858;8.530;2024-03-29T04:05:25;1.60;;;1.50;;
45650;SDS011;31365;48.858;8.530;2024-03-29T04:07:52;1.50;;;1.40;;
45650;SDS011;31365;48.858;8.530;2024-03-29T04:10:19;1.93;;;1.40;;
45650;SDS011;31365;48.858;8.530;2024-03-29T04:12:47;1.60;;;1.50;;
45650;SDS011;31365;48.858;8.530;2024-03-29T04:15:16;1.33;;;1.30;;
45650;SDS011;31365;48.858;8.530;2024-03-29T04:17:44;1.20;;;1.20;;
45650;SDS011;31365;48.858;8.530;2024-03-29T04:20:11;1.20;;;1.20;;
45650;SDS011;31365;48.858;8.530;2024-03-29T04:22:39;1.40;;;1.30;;
45650;SDS011;31365;48.858;8.530;2024-03-29T04:25:06;1.40;;;1.40;;
45650;SDS011;31365;48.858;8.530;2024-03-29T04:27:33;3.60;;;1.30;;
45650;SDS011;31365;48.858;8.530;2024-03-29T04:30:01;1.50;;;1.40;;
45650;SDS011;31365;48.858;8.530;2024-03-29T04:32:28;1.40;;;1.40;;
45650;SDS011;31365;48.858;8.530;2024-03-29T04:34:55;1.50;;;1.40;;
45650;SDS011;31365;48.858;8.530;2024-03-29T04:37:21;3.30;;;1.27;;
45650;SDS011;31365;48.858;8.530;2024-03-29T04:39:50;1.33;;;1.33;;
45650;SDS011;31365;48.858;8.530;2024-03-29T04:42:18;1.60;;;1.30;;
45650;SDS011;31365;48.858;8.530;2024-03-29T04:44:45;1.20;;;1.20;;
45650;SDS011;31365;48.858;8.530;2024-03-29T04:47:12;1.30;;;1.30;;
45650;SDS011;31365;48.858;8.530;2024-03-29T04:49:40;1.73;;;1.30;;
45650;SDS011;31365;48.858;8.530;2024-03-29T04:52:07;1.40;;;1.30;;
45650;SDS011;31365;48.858;8.530;2024-03-29T04:54:35;1.70;;;1.60;;
45650;SDS011;31365;48.858;8.530;2024-03-29T04:57:04;1.90;;;1.40;;
45650;SDS011;31365;48.858;8.530;2024-03-29T04:59:32;1.40;;;1.30;;
45650;SDS011;31365;48.858;8.530;2024-03-29T05:02:00;1.20;;;1.20;;
45650;SDS011;31365;48.858;8.530;2024-03-29T05:04:28;1.20;;;1.20;;
45650;SDS011;31365;48.858;8.530;2024-03-29T05:06:55;1.20;;;1.20;;
45650;SDS011;31365;48.858;8.530;2024-03-29T05:09:25;2.10;;;1.30;;
45650;SDS011;31365;48.858;8.530;2024-03-29T05:11:53;1.47;;;1.37;;
45650;SDS011;31365;48.858;8.530;2024-03-29T05:14:21;1.30;;;1.30;;
45650;SDS011;31365;48.858;8.530;2024-03-29T05:16:49;1.47;;;1.37;;
45650;SDS011;31365;48.858;8.530;2024-03-29T05:19:17;1.20;;;1.20;;
45650;SDS011;31365;48.858;8.530;2024-03-29T05:21:44;1.40;;;1.30;;
45650;SDS011;31365;48.858;8.530;2024-03-29T05:24:11;1.20;;;1.20;;
45650;SDS011;31365;48.858;8.530;2024-03-29T05:26:38;1.70;;;1.60;;
45650;SDS011;31365;48.858;8.530;2024-03-29T05:29:06;1.40;;;1.30;;
45650;SDS011;31365;48.858;8.530;2024-03-29T05:31:35;1.20;;;1.20;;
45650;SDS011;31365;48.858;8.530;2024-03-29T05:34:04;2.43;;;1.50;;
45650;SDS011;31365;48.858;8.530;2024-03-29T05:36:31;1.70;;;1.20;;
45650;SDS011;31365;48.858;8.530;2024-03-29T05:38:59;1.50;;;1.40;;
45650;SDS011;31365;48.858;8.530;2024-03-29T05:41:27;1.13;;;1.13;;
45650;SDS011;31365;48.858;8.530;2024-03-29T05:43:56;1.40;;;1.30;;
45650;SDS011;31365;48.858;8.530;2024-03-29T05:46:23;1.53;;;1.43;;
45650;SDS011;31365;48.858;8.530;2024-03-29T05:48:52;1.13;;;1.13;;
45650;SDS011;31365;48.858;8.530;2024-03-29T05:51:19;1.20;;;1.20;;
45650;SDS011;31365;48.858;8.530;2024-03-29T05:53:47;1.40;;;1.30;;
45650;SDS011;31365;48.858;8.530;2024-03-29T05:56:14;1.30;;;1.30;;
45650;SDS011;31365;48.858;8.530;2024-03-29T05:58:42;1.40;;;1.30;;
45650;SDS011;31365;48.858;8.530;2024-03-29T06:01:10;1.53;;;1.40;;
45650;SDS011;31365;48.858;8.530;2024-03-29T06:03:38;1.30;;;1.20;;
45650;SDS011;31365;48.858;8.530;2024-03-29T06:06:07;1.50;;;1.40;;
45650;SDS011;31365;48.858;8.530;2024-03-29T06:08:41;1.57;;;1.47;;
45650;SDS011;31365;48.858;8.530;2024-03-29T06:11:09;1.50;;;1.40;;
45650;SDS011;31365;48.858;8.530;2024-03-29T06:13:38;1.60;;;1.50;;
45650;SDS011;31365;48.858;8.530;2024-03-29T06:16:42;1.50;;;1.40;;
45650;SDS011;31365;48.858;8.530;2024-03-29T06:19:27;1.60;;;1.50;;
45650;SDS011;31365;48.858;8.530;2024-03-29T06:21:56;1.37;;;1.33;;
45650;SDS011;31365;48.858;8.530;2024-03-29T06:24:24;1.53;;;1.30;;
45650;SDS011;31365;48.858;8.530;2024-03-29T06:26:51;1.57;;;1.47;;
45650;SDS011;31365;48.858;8.530;2024-03-29T06:29:19;1.77;;;1.40;;
45650;SDS011;31365;48.858;8.530;2024-03-29T06:31:46;1.60;;;1.50;;
45650;SDS011;31365;48.858;8.530;2024-03-29T06:34:14;1.70;;;1.60;;
45650;SDS011;31365;48.858;8.530;2024-03-29T06:36:41;1.60;;;1.50;;
45650;SDS011;31365;48.858;8.530;2024-03-29T06:39:11;1.60;;;1.50;;
45650;SDS011;31365;48.858;8.530;2024-03-29T06:41:38;2.23;;;2.03;;
45650;SDS011;31365;48.858;8.530;2024-03-29T06:44:06;1.97;;;1.87;;
45650;SDS011;31365;48.858;8.530;2024-03-29T06:46:33;1.77;;;1.67;;
45650;SDS011;31365;48.858;8.530;2024-03-29T06:49:01;2.00;;;1.80;;
45650;SDS011;31365;48.858;8.530;2024-03-29T06:51:29;1.80;;;1.70;;
45650;SDS011;31365;48.858;8.530;2024-03-29T06:53:57;2.13;;;1.60;;
45650;SDS011;31365;48.858;8.530;2024-03-29T06:56:26;2.10;;;1.90;;
45650;SDS011;31365;48.858;8.530;2024-03-29T06:58:56;1.83;;;1.73;;
45650;SDS011;31365;48.858;8.530;2024-03-29T07:01:24;2.00;;;1.87;;
45650;SDS011;31365;48.858;8.530;2024-03-29T07:03:52;2.20;;;2.00;;
45650;SDS011;31365;48.858;8.530;2024-03-29T07:06:19;2.00;;;1.87;;
45650;SDS011;31365;48.858;8.530;2024-03-29T07:08:46;2.00;;;1.90;;
45650;SDS011;31365;48.858;8.530;2024-03-29T07:11:15;1.87;;;1.70;;
45650;SDS011;31365;48.858;8.530;2024-03-29T07:13:44;2.00;;;1.73;;
45650;SDS011;31365;48.858;8.530;2024-03-29T07:16:11;1.77;;;1.67;;
45650;SDS011;31365;48.858;8.530;2024-03-29T07:18:38;2.03;;;1.93;;
45650;SDS011;31365;48.858;8.530;2024-03-29T07:21:05;1.80;;;1.70;;
45650;SDS011;31365;48.858;8.530;2024-03-29T07:23:32;1.73;;;1.63;;
45650;SDS011;31365;48.858;8.530;2024-03-29T07:26:00;2.20;;;2.00;;
45650;SDS011;31365;48.858;8.530;2024-03-29T07:28:31;1.90;;;1.80;;
45650;SDS011;31365;48.858;8.530;2024-03-29T07:31:06;2.10;;;2.00;;
45650;SDS011;31365;48.858;8.530;2024-03-29T07:33:34;5.23;;;3.50;;
45650;SDS011;31365;48.858;8.530;2024-03-29T07:36:03;4.40;;;2.30;;
45650;SDS011;31365;48.858;8.530;2024-03-29T07:38:31;3.73;;;3.03;;
45650;SDS011;31365;48.858;8.530;2024-03-29T07:40:59;3.10;;;2.30;;
45650;SDS011;31365;48.858;8.530;2024-03-29T07:43:34;3.60;;;2.57;;
45650;SDS011;31365;48.858;8.530;2024-03-29T07:46:07;3.23;;;2.73;;
45650;SDS011;31365;48.858;8.530;2024-03-29T07:48:35;4.70;;;4.20;;
45650;SDS011;31365;48.858;8.530;2024-03-29T07:51:03;4.67;;;4.20;;
45650;SDS011;31365;48.858;8.530;2024-03-29T07:53:30;4.17;;;3.10;;
45650;SDS011;31365;48.858;8.530;2024-03-29T07:55:57;5.57;;;5.07;;
45650;SDS011;31365;48.858;8.530;2024-03-29T07:58:26;3.87;;;3.40;;
45650;SDS011;31365;48.858;8.530;2024-03-29T08:00:53;4.87;;;3.60;;
45650;SDS011;31365;48.858;8.530;2024-03-29T08:03:22;3.73;;;3.33;;
45650;SDS011;31365;48.858;8.530;2024-03-29T08:05:55;6.03;;;4.50;;
45650;SDS011;31365;48.858;8.530;2024-03-29T08:08:23;5.07;;;4.67;;
45650;SDS011;31365;48.858;8.530;2024-03-29T08:10:52;4.90;;;4.60;;
45650;SDS011;31365;48.858;8.530;2024-03-29T08:13:20;4.97;;;4.63;;
45650;SDS011;31365;48.858;8.530;2024-03-29T08:15:48;4.80;;;4.60;;
45650;SDS011;31365;48.858;8.530;2024-03-29T08:18:15;5.57;;;5.17;;
45650;SDS011;31365;48.858;8.530;2024-03-29T08:20:44;6.67;;;6.27;;
45650;SDS011;31365;48.858;8.530;2024-03-29T08:23:11;8.17;;;7.47;;
45650;SDS011;31365;48.858;8.530;2024-03-29T08:25:39;9.30;;;8.40;;
45650;SDS011;31365;48.858;8.530;2024-03-29T08:28:07;10.63;;;9.63;;
45650;SDS011;31365;48.858;8.530;2024-03-29T08:30:34;10.27;;;9.27;;
45650;SDS011;31365;48.858;8.530;2024-03-29T08:33:01;6.20;;;5.80;;
45650;SDS011;31365;48.858;8.530;2024-03-29T08:35:30;5.63;;;5.33;;
45650;SDS011;31365;48.858;8.530;2024-03-29T08:38:01;10.07;;;9.00;;
45650;SDS011;31365;48.858;8.530;2024-03-29T08:40:29;5.50;;;5.20;;
45650;SDS011;31365;48.858;8.530;2024-03-29T08:42:59;15.97;;;14.47;;
45650;SDS011;31365;48.858;8.530;2024-03-29T08:45:30;5.80;;;5.37;;
45650;SDS011;31365;48.858;8.530;2024-03-29T08:47:58;10.13;;;9.43;;
45650;SDS011;31365;48.858;8.530;2024-03-29T08:50:24;5.63;;;5.33;;
45650;SDS011;31365;48.858;8.530;2024-03-29T08:52:52;5.30;;;4.90;;
45650;SDS011;31365;48.858;8.530;2024-03-29T08:55:21;5.03;;;4.83;;
45650;SDS011;31365;48.858;8.530;2024-03-29T08:57:48;5.70;;;5.30;;
45650;SDS011;31365;48.858;8.530;2024-03-29T09:00:16;5.90;;;5.63;;
45650;SDS011;31365;48.858;8.530;2024-03-29T09:02:45;5.63;;;5.33;;
45650;SDS011;31365;48.858;8.530;2024-03-29T09:05:13;5.40;;;5.20;;
45650;SDS011;31365;48.858;8.530;2024-03-29T09:07:40;5.20;;;5.00;;
45650;SDS011;31365;48.858;8.530;2024-03-29T09:10:07;5.20;;;5.00;;
45650;SDS011;31365;48.858;8.530;2024-03-29T09:12:37;6.13;;;5.73;;
45650;SDS011;31365;48.858;8.530;2024-03-29T09:15:05;6.00;;;5.70;;
45650;SDS011;31365;48.858;8.530;2024-03-29T09:17:38;5.80;;;5.60;;
45650;SDS011;31365;48.858;8.530;2024-03-29T09:20:07;6.30;;;6.10;;
45650;SDS011;31365;48.858;8.530;2024-03-29T09:22:35;5.93;;;5.53;;
45650;SDS011;31365;48.858;8.530;2024-03-29T09:25:03;6.20;;;5.70;;
45650;SDS011;31365;48.858;8.530;2024-03-29T09:27:31;5.30;;;5.10;;
45650;SDS011;31365;48.858;8.530;2024-03-29T09:30:04;5.70;;;5.50;;
45650;SDS011;31365;48.858;8.530;2024-03-29T09:32:33;6.20;;;5.90;;
45650;SDS011;31365;48.858;8.530;2024-03-29T09:35:00;6.60;;;6.20;;
45650;SDS011;31365;48.858;8.530;2024-03-29T09:37:28;11.70;;;10.77;;
45650;SDS011;31365;48.858;8.530;2024-03-29T09:39:55;11.37;;;10.47;;
45650;SDS011;31365;48.858;8.530;2024-03-29T09:42:22;6.47;;;6.17;;
45650;SDS011;31365;48.858;8.530;2024-03-29T09:44:52;5.80;;;5.60;;
45650;SDS011;31365;48.858;8.530;2024-03-29T09:47:25;5.50;;;5.20;;
45650;SDS011;31365;48.858;8.530;2024-03-29T09:49:54;5.80;;;5.40;;
45650;SDS011;31365;48.858;8.530;2024-03-29T09:52:25;5.80;;;5.50;;
45650;SDS011;31365;48.858;8.530;2024-03-29T09:54:53;5.40;;;5.10;;
45650;SDS011;31365;48.858;8.530;2024-03-29T09:57:23;5.20;;;4.97;;
45650;SDS011;31365;48.858;8.530;2024-03-29T09:59:55;5.50;;;5.20;;
45650;SDS011;31365;48.858;8.530;2024-03-29T10:02:26;5.20;;;5.00;;
45650;SDS011;31365;48.858;8.530;2024-03-29T10:04:57;4.70;;;4.50;;
45650;SDS011;31365;48.858;8.530;2024-03-29T10:07:32;5.43;;;5.13;;
45650;SDS011;31365;48.858;8.530;2024-03-29T10:10:01;17.13;;;15.33;;
45650;SDS011;31365;48.858;8.530;2024-03-29T10:12:29;11.60;;;10.70;;
45650;SDS011;31365;48.858;8.530;2024-03-29T10:14:57;6.80;;;6.33;;
45650;SDS011;31365;48.858;8.530;2024-03-29T10:17:33;6.97;;;6.47;;
45650;SDS011;31365;48.858;8.530;2024-03-29T10:20:04;5.20;;;4.90;;
45650;SDS011;31365;48.858;8.530;2024-03-29T10:22:35;5.90;;;5.60;;
45650;SDS011;31365;48.858;8.530;2024-03-29T10:25:07;5.53;;;5.00;;
45650;SDS011;31365;48.858;8.530;2024-03-29T10:27:35;5.30;;;5.00;;
45650;SDS011;31365;48.858;8.530;2024-03-29T10:30:02;6.10;;;5.80;;
45650;SDS011;31365;48.858;8.530;2024-03-29T10:32:32;6.50;;;6.00;;
45650;SDS011;31365;48.858;8.530;2024-03-29T10:35:00;4.80;;;4.40;;
45650;SDS011;31365;48.858;8.530;2024-03-29T10:37:28;5.67;;;5.33;;
45650;SDS011;31365;48.858;8.530;2024-03-29T10:40:00;4.27;;;3.97;;
45650;SDS011;31365;48.858;8.530;2024-03-29T10:42:30;3.90;;;3.70;;
45650;SDS011;31365;48.858;8.530;2024-03-29T10:44:59;5.07;;;4.80;;
45650;SDS011;31365;48.858;8.530;2024-03-29T10:47:28;4.73;;;4.20;;
45650;SDS011;31365;48.858;8.530;2024-03-29T10:50:00;6.37;;;5.97;;
45650;SDS011;31365;48.858;8.530;2024-03-29T10:52:30;4.50;;;4.30;;
45650;SDS011;31365;48.858;8.530;2024-03-29T10:54:58;5.10;;;4.80;;
45650;SDS011;31365;48.858;8.530;2024-03-29T10:57:26;5.60;;;5.22;;
45650;SDS011;31365;48.858;8.530;2024-03-29T10:59:56;4.72;;;4.53;;
45650;SDS011;31365;48.858;8.530;2024-03-29T11:02:33;4.30;;;4.10;;
45650;SDS011;31365;48.858;8.530;2024-03-29T11:05:17;3.55;;;3.35;;
45650;SDS011;31365;48.858;8.530;2024-03-29T11:07:46;3.20;;;3.00;;
45650;SDS011;31365;48.858;8.530;2024-03-29T11:10:17;3.08;;;2.88;;
45650;SDS011;31365;48.858;8.530;2024-03-29T11:12:57;2.90;;;2.80;;
45650;SDS011;31365;48.858;8.530;2024-03-29T11:15:30;2.70;;;2.60;;
45650;SDS011;31365;48.858;8.530;2024-03-29T11:18:00;2.88;;;2.70;;
45650;SDS011;31365;48.858;8.530;2024-03-29T11:20:31;2.78;;;2.58;;
45650;SDS011;31365;48.858;8.530;2024-03-29T11:23:04;3.08;;;2.88;;
45650;SDS011;31365;48.858;8.530;2024-03-29T11:25:40;2.97;;;2.75;;
45650;SDS011;31365;48.858;8.530;2024-03-29T11:28:10;2.80;;;2.70;;
45650;SDS011;31365;48.858;8.530;2024-03-29T11:30:47;2.92;;;2.75;;
45650;SDS011;31365;48.858;8.530;2024-03-29T11:33:27;2.63;;;2.42;;
45650;SDS011;31365;48.858;8.530;2024-03-29T11:36:06;2.55;;;2.45;;
45650;SDS011;31365;48.858;8.530;2024-03-29T11:38:38;2.80;;;2.70;;
45650;SDS011;31365;48.858;8.530;2024-03-29T11:41:10;2.88;;;2.67;;
45650;SDS011;31365;48.858;8.530;2024-03-29T11:43:40;2.83;;;2.70;;
45650;SDS011;31365;48.858;8.530;2024-03-29T11:46:09;2.30;;;2.20;;
45650;SDS011;31365;48.858;8.530;2024-03-29T11:48:37;2.67;;;2.58;;
45650;SDS011;31365;48.858;8.530;2024-03-29T11:51:07;2.50;;;2.40;;
45650;SDS011;31365;48.858;8.530;2024-03-29T11:53:39;2.35;;;2.25;;
45650;SDS011;31365;48.858;8.530;2024-03-29T11:56:07;2.40;;;2.20;;
45650;SDS011;31365;48.858;8.530;2024-03-29T11:58:37;2.30;;;2.20;;
45650;SDS011;31365;48.858;8.530;2024-03-29T12:01:04;2.40;;;2.30;;
45650;SDS011;31365;48.858;8.530;2024-03-29T12:03:37;2.40;;;2.30;;
45650;SDS011;31365;48.858;8.530;2024-03-29T12:06:05;2.25;;;2.15;;
45650;SDS011;31365;48.858;8.530;2024-03-29T12:08:36;2.78;;;2.58;;
45650;SDS011;31365;48.858;8.530;2024-03-29T12:11:08;2.03;;;1.92;;
45650;SDS011;31365;48.858;8.530;2024-03-29T12:13:35;3.13;;;2.92;;
45650;SDS011;31365;48.858;8.530;2024-03-29T12:16:05;4.97;;;4.68;;
45650;SDS011;31365;48.858;8.530;2024-03-29T12:18:34;3.63;;;3.35;;
45650;SDS011;31365;48.858;8.530;2024-03-29T12:21:02;3.28;;;3.08;;
45650;SDS011;31365;48.858;8.530;2024-03-29T12:23:31;3.20;;;3.00;;
45650;SDS011;31365;48.858;8.530;2024-03-29T12:26:00;3.38;;;3.17;;
45650;SDS011;31365;48.858;8.530;2024-03-29T12:28:28;6.22;;;5.05;;
45650;SDS011;31365;48.858;8.530;2024-03-29T12:30:59;4.47;;;4.07;;
45650;SDS011;31365;48.858;8.530;2024-03-29T12:33:28;3.90;;;3.70;;
45650;SDS011;31365;48.858;8.530;2024-03-29T12:35:57;4.60;;;4.30;;
45650;SDS011;31365;48.858;8.530;2024-03-29T12:38:24;4.07;;;3.88;;
45650;SDS011;31365;48.858;8.530;2024-03-29T12:40:53;5.45;;;4.88;;
45650;SDS011;31365;48.858;8.530;2024-03-29T12:43:22;4.50;;;4.30;;
45650;SDS011;31365;48.858;8.530;2024-03-29T12:45:50;5.88;;;5.40;;
45650;SDS011;31365;48.858;8.530;2024-03-29T12:48:19;5.18;;;4.82;;
45650;SDS011;31365;48.858;8.530;2024-03-29T12:50:48;5.82;;;5.30;;
45650;SDS011;31365;48.858;8.530;2024-03-29T12:53:16;9.82;;;8.93;;
45650;SDS011;31365;48.858;8.530;2024-03-29T12:55:44;7.55;;;6.93;;
45650;SDS011;31365;48.858;8.530;2024-03-29T12:58:16;6.97;;;6.40;;
45650;SDS011;31365;48.858;8.530;2024-03-29T13:00:47;6.03;;;5.53;;
45650;SDS011;31365;48.858;8.530;2024-03-29T13:03:15;5.80;;;5.50;;
45650;SDS011;31365;48.858;8.530;2024-03-29T13:05:43;5.35;;;5.05;;
45650;SDS011;31365;48.858;8.530;2024-03-29T13:08:10;4.90;;;4.50;;
45650;SDS011;31365;48.858;8.530;2024-03-29T13:10:41;5.22;;;4.82;;
45650;SDS011;31365;48.858;8.530;2024-03-29T13:13:10;5.18;;;4.88;;
45650;SDS011;31365;48.858;8.530;2024-03-29T13:15:39;5.15;;;4.75;;
45650;SDS011;31365;48.858;8.530;2024-03-29T13:18:08;5.60;;;5.10;;
45650;SDS011;31365;48.858;8.530;2024-03-29T13:20:36;7.03;;;5.90;;
45650;SDS011;31365;48.858;8.530;2024-03-29T13:23:06;6.90;;;6.30;;
45650;SDS011;31365;48.858;8.530;2024-03-29T13:25:34;7.60;;;6.97;;
45650;SDS011;31365;48.858;8.530;2024-03-29T13:28:01;5.78;;;5.35;;
45650;SDS011;31365;48.858;8.530;2024-03-29T13:30:29;4.40;;;4.10;;
45650;SDS011;31365;48.858;8.530;2024-03-29T13:32:58;5.22;;;4.93;;
45650;SDS011;31365;48.858;8.530;2024-03-29T13:35:25;12.40;;;10.25;;
45650;SDS011;31365;48.858;8.530;2024-03-29T13:37:52;7.03;;;6.38;;
45650;SDS011;31365;48.858;8.530;2024-03-29T13:40:21;5.55;;;4.97;;
45650;SDS011;31365;48.858;8.530;2024-03-29T13:42:50;4.47;;;4.18;;
45650;SDS011;31365;48.858;8.530;2024-03-29T13:45:18;4.70;;;4.30;;
45650;SDS011;31365;48.858;8.530;2024-03-29T13:47:45;4.15;;;3.85;;
45650;SDS011;31365;48.858;8.530;2024-03-29T13:50:14;5.93;;;5.43;;
45650;SDS011;31365;48.858;8.530;2024-03-29T13:52:42;37.10;;;26.13;;
45650;SDS011;31365;48.858;8.530;2024-03-29T13:55:10;7.80;;;7.10;;
45650;SDS011;31365;48.858;8.530;2024-03-29T13:57:37;6.13;;;5.53;;
45650;SDS011;31365;48.858;8.530;2024-03-29T14:00:06;4.10;;;3.90;;
45650;SDS011;31365;48.858;8.530;2024-03-29T14:02:40;3.60;;;3.40;;
45650;SDS011;31365;48.858;8.530;2024-03-29T14:05:07;3.60;;;3.40;;
45650;SDS011;31365;48.858;8.530;2024-03-29T14:07:37;3.85;;;3.55;;
45650;SDS011;31365;48.858;8.530;2024-03-29T14:10:04;3.67;;;3.47;;
45650;SDS011;31365;48.858;8.530;2024-03-29T14:12:33;5.93;;;5.40;;
45650;SDS011;31365;48.858;8.530;2024-03-29T14:15:00;5.15;;;4.78;;
45650;SDS011;31365;48.858;8.530;2024-03-29T14:17:31;12.40;;;11.35;;
45650;SDS011;31365;48.858;8.530;2024-03-29T14:19:58;20.48;;;18.55;;
45650;SDS011;31365;48.858;8.530;2024-03-29T14:22:26;7.95;;;7.25;;
45650;SDS011;31365;48.858;8.530;2024-03-29T14:24:58;4.35;;;4.05;;
45650;SDS011;31365;48.858;8.530;2024-03-29T14:27:25;6.07;;;5.68;;
45650;SDS011;31365;48.858;8.530;2024-03-29T14:29:52;4.57;;;4.15;;
45650;SDS011;31365;48.858;8.530;2024-03-29T14:32:21;3.95;;;3.72;;
45650;SDS011;31365;48.858;8.530;2024-03-29T14:34:49;4.50;;;4.20;;
45650;SDS011;31365;48.858;8.530;2024-03-29T14:37:17;4.10;;;3.80;;
45650;SDS011;31365;48.858;8.530;2024-03-29T14:39:46;10.95;;;9.85;;
45650;SDS011;31365;48.858;8.530;2024-03-29T14:42:15;5.55;;;5.15;;
45650;SDS011;31365;48.858;8.530;2024-03-29T14:44:47;4.75;;;4.10;;
45650;SDS011;31365;48.858;8.530;2024-03-29T14:47:16;5.20;;;4.80;;
45650;SDS011;31365;48.858;8.530;2024-03-29T14:49:45;4.47;;;4.15;;
45650;SDS011;31365;48.858;8.530;2024-03-29T14:52:12;3.75;;;3.40;;
45650;SDS011;31365;48.858;8.530;2024-03-29T14:54:39;5.22;;;4.65;;
45650;SDS011;31365;48.858;8.530;2024-03-29T14:57:07;5.78;;;5.28;;